Terminal Aerodrome Forecast
Issued by NWS Pocatello, ID

Home | Current Version | Previous Version | Text Only | Print | Product List | Glossary On
Versions: 1 2 3 4 5 6 7 8 9 10 11 12 13
580
FTUS45 KPIH 230520
TAFIDA
TAF
KIDA 230520Z 2306/2406 VRB05KT P6SM SKC
     FM231700 20006KT P6SM SCT110
     FM232300 21010KT P6SM FEW120
     FM240100 19005KT P6SM SKC=

USA.gov is the U.S. government's official web portal to all federal, state and local government web resources and services.